sensor_id;sensor_type;location;lat;lon;timestamp;P1;durP1;ratioP1;P2;durP2;ratioP2
12177;SDS011;6152;48.728;9.256;2023-02-13T00:02:17;27.20;;;13.05;;
12177;SDS011;6152;48.728;9.256;2023-02-13T00:04:43;28.00;;;12.93;;
12177;SDS011;6152;48.728;9.256;2023-02-13T00:07:09;26.38;;;13.68;;
12177;SDS011;6152;48.728;9.256;2023-02-13T00:09:36;24.13;;;12.38;;
12177;SDS011;6152;48.728;9.256;2023-02-13T00:12:03;25.58;;;12.88;;
12177;SDS011;6152;48.728;9.256;2023-02-13T00:14:30;26.90;;;12.82;;
12177;SDS011;6152;48.728;9.256;2023-02-13T00:16:59;25.95;;;11.98;;
12177;SDS011;6152;48.728;9.256;2023-02-13T00:19:25;23.07;;;12.20;;
12177;SDS011;6152;48.728;9.256;2023-02-13T00:21:51;25.40;;;13.07;;
12177;SDS011;6152;48.728;9.256;2023-02-13T00:24:17;26.40;;;12.73;;
12177;SDS011;6152;48.728;9.256;2023-02-13T00:26:43;23.87;;;12.70;;
12177;SDS011;6152;48.728;9.256;2023-02-13T00:29:09;25.83;;;13.17;;
12177;SDS011;6152;48.728;9.256;2023-02-13T00:31:36;24.10;;;12.00;;
12177;SDS011;6152;48.728;9.256;2023-02-13T00:34:02;25.00;;;12.97;;
12177;SDS011;6152;48.728;9.256;2023-02-13T00:36:28;27.52;;;12.45;;
12177;SDS011;6152;48.728;9.256;2023-02-13T00:38:54;27.63;;;12.33;;
12177;SDS011;6152;48.728;9.256;2023-02-13T00:41:21;23.90;;;12.00;;
12177;SDS011;6152;48.728;9.256;2023-02-13T00:43:47;23.97;;;12.30;;
12177;SDS011;6152;48.728;9.256;2023-02-13T00:46:14;26.03;;;12.37;;
12177;SDS011;6152;48.728;9.256;2023-02-13T00:48:41;23.23;;;12.00;;
12177;SDS011;6152;48.728;9.256;2023-02-13T00:51:08;22.08;;;11.98;;
12177;SDS011;6152;48.728;9.256;2023-02-13T00:53:35;23.80;;;12.63;;
12177;SDS011;6152;48.728;9.256;2023-02-13T00:56:02;30.15;;;14.10;;
12177;SDS011;6152;48.728;9.256;2023-02-13T00:58:29;22.57;;;11.47;;
12177;SDS011;6152;48.728;9.256;2023-02-13T01:00:56;23.30;;;11.80;;
12177;SDS011;6152;48.728;9.256;2023-02-13T01:03:22;25.00;;;11.73;;
12177;SDS011;6152;48.728;9.256;2023-02-13T01:05:49;22.20;;;11.10;;
12177;SDS011;6152;48.728;9.256;2023-02-13T01:08:16;28.17;;;13.03;;
12177;SDS011;6152;48.728;9.256;2023-02-13T01:10:44;25.50;;;12.43;;
12177;SDS011;6152;48.728;9.256;2023-02-13T01:13:12;28.40;;;13.30;;
12177;SDS011;6152;48.728;9.256;2023-02-13T01:15:40;28.33;;;13.02;;
12177;SDS011;6152;48.728;9.256;2023-02-13T01:18:06;25.60;;;13.07;;
12177;SDS011;6152;48.728;9.256;2023-02-13T01:20:34;26.13;;;12.73;;
12177;SDS011;6152;48.728;9.256;2023-02-13T01:23:00;26.87;;;11.93;;
12177;SDS011;6152;48.728;9.256;2023-02-13T01:25:26;29.33;;;14.20;;
12177;SDS011;6152;48.728;9.256;2023-02-13T01:27:52;29.73;;;14.60;;
12177;SDS011;6152;48.728;9.256;2023-02-13T01:30:18;25.93;;;13.90;;
12177;SDS011;6152;48.728;9.256;2023-02-13T01:32:45;24.97;;;12.93;;
12177;SDS011;6152;48.728;9.256;2023-02-13T01:35:12;29.53;;;13.63;;
12177;SDS011;6152;48.728;9.256;2023-02-13T01:37:39;24.87;;;13.37;;
12177;SDS011;6152;48.728;9.256;2023-02-13T01:40:07;27.53;;;12.23;;
12177;SDS011;6152;48.728;9.256;2023-02-13T01:42:38;26.17;;;13.10;;
12177;SDS011;6152;48.728;9.256;2023-02-13T01:47:59;26.87;;;13.10;;
12177;SDS011;6152;48.728;9.256;2023-02-13T01:50:33;28.58;;;12.68;;
12177;SDS011;6152;48.728;9.256;2023-02-13T01:53:07;27.57;;;12.83;;
12177;SDS011;6152;48.728;9.256;2023-02-13T01:55:48;31.00;;;13.93;;
12177;SDS011;6152;48.728;9.256;2023-02-13T01:58:21;24.83;;;13.27;;
12177;SDS011;6152;48.728;9.256;2023-02-13T02:00:50;29.13;;;13.67;;
12177;SDS011;6152;48.728;9.256;2023-02-13T02:03:24;24.80;;;12.23;;
12177;SDS011;6152;48.728;9.256;2023-02-13T02:05:51;28.53;;;13.30;;
12177;SDS011;6152;48.728;9.256;2023-02-13T02:08:21;26.37;;;12.73;;
12177;SDS011;6152;48.728;9.256;2023-02-13T02:10:47;28.90;;;12.80;;
12177;SDS011;6152;48.728;9.256;2023-02-13T02:13:15;25.70;;;13.23;;
12177;SDS011;6152;48.728;9.256;2023-02-13T02:15:43;23.63;;;12.23;;
12177;SDS011;6152;48.728;9.256;2023-02-13T02:18:12;27.50;;;13.67;;
12177;SDS011;6152;48.728;9.256;2023-02-13T02:26:37;23.70;;;12.87;;
12177;SDS011;6152;48.728;9.256;2023-02-13T02:29:35;29.30;;;13.73;;
12177;SDS011;6152;48.728;9.256;2023-02-13T02:38:39;29.13;;;13.30;;
12177;SDS011;6152;48.728;9.256;2023-02-13T02:44:54;28.43;;;13.23;;
12177;SDS011;6152;48.728;9.256;2023-02-13T02:47:32;28.90;;;13.13;;
12177;SDS011;6152;48.728;9.256;2023-02-13T03:01:33;28.30;;;13.53;;
12177;SDS011;6152;48.728;9.256;2023-02-13T03:04:23;32.73;;;14.07;;
12177;SDS011;6152;48.728;9.256;2023-02-13T03:07:19;25.63;;;13.40;;
12177;SDS011;6152;48.728;9.256;2023-02-13T03:09:52;28.57;;;14.07;;
12177;SDS011;6152;48.728;9.256;2023-02-13T03:12:48;30.47;;;13.97;;
12177;SDS011;6152;48.728;9.256;2023-02-13T03:16:00;28.17;;;12.60;;
12177;SDS011;6152;48.728;9.256;2023-02-13T03:18:46;30.70;;;14.53;;
12177;SDS011;6152;48.728;9.256;2023-02-13T03:24:51;30.73;;;14.63;;
12177;SDS011;6152;48.728;9.256;2023-02-13T03:30:55;29.40;;;14.03;;
12177;SDS011;6152;48.728;9.256;2023-02-13T03:36:18;31.33;;;13.63;;
12177;SDS011;6152;48.728;9.256;2023-02-13T03:39:23;30.53;;;14.00;;
12177;SDS011;6152;48.728;9.256;2023-02-13T03:42:14;29.10;;;14.20;;
12177;SDS011;6152;48.728;9.256;2023-02-13T03:45:06;29.20;;;13.63;;
12177;SDS011;6152;48.728;9.256;2023-02-13T03:48:07;28.83;;;14.27;;
12177;SDS011;6152;48.728;9.256;2023-02-13T03:50:55;28.17;;;13.83;;
12177;SDS011;6152;48.728;9.256;2023-02-13T03:53:24;26.23;;;14.13;;
12177;SDS011;6152;48.728;9.256;2023-02-13T03:55:53;28.37;;;14.37;;
12177;SDS011;6152;48.728;9.256;2023-02-13T03:58:41;31.30;;;14.83;;
12177;SDS011;6152;48.728;9.256;2023-02-13T04:01:33;28.43;;;14.33;;
12177;SDS011;6152;48.728;9.256;2023-02-13T04:06:47;26.57;;;12.73;;
12177;SDS011;6152;48.728;9.256;2023-02-13T04:09:22;28.50;;;13.00;;
12177;SDS011;6152;48.728;9.256;2023-02-13T04:14:29;27.77;;;12.57;;
12177;SDS011;6152;48.728;9.256;2023-02-13T04:17:10;28.33;;;13.40;;
12177;SDS011;6152;48.728;9.256;2023-02-13T04:19:47;27.27;;;13.63;;
12177;SDS011;6152;48.728;9.256;2023-02-13T04:22:13;31.10;;;14.00;;
12177;SDS011;6152;48.728;9.256;2023-02-13T04:24:39;29.43;;;14.70;;
12177;SDS011;6152;48.728;9.256;2023-02-13T04:27:06;29.80;;;14.33;;
12177;SDS011;6152;48.728;9.256;2023-02-13T04:29:33;28.67;;;14.43;;
12177;SDS011;6152;48.728;9.256;2023-02-13T04:31:59;34.07;;;14.13;;
12177;SDS011;6152;48.728;9.256;2023-02-13T04:34:25;30.97;;;14.00;;
12177;SDS011;6152;48.728;9.256;2023-02-13T04:36:51;30.67;;;14.90;;
12177;SDS011;6152;48.728;9.256;2023-02-13T04:39:17;34.27;;;14.83;;
12177;SDS011;6152;48.728;9.256;2023-02-13T04:41:43;29.23;;;14.47;;
12177;SDS011;6152;48.728;9.256;2023-02-13T04:44:09;31.03;;;14.70;;
12177;SDS011;6152;48.728;9.256;2023-02-13T04:46:35;28.97;;;13.83;;
12177;SDS011;6152;48.728;9.256;2023-02-13T04:49:02;26.87;;;13.87;;
12177;SDS011;6152;48.728;9.256;2023-02-13T04:51:28;29.57;;;14.73;;
12177;SDS011;6152;48.728;9.256;2023-02-13T04:53:54;33.17;;;15.03;;
12177;SDS011;6152;48.728;9.256;2023-02-13T04:56:20;32.20;;;15.20;;
12177;SDS011;6152;48.728;9.256;2023-02-13T04:58:46;34.73;;;15.17;;
12177;SDS011;6152;48.728;9.256;2023-02-13T05:01:13;30.23;;;14.90;;
12177;SDS011;6152;48.728;9.256;2023-02-13T05:03:40;30.27;;;14.43;;
12177;SDS011;6152;48.728;9.256;2023-02-13T05:06:06;29.00;;;14.67;;
12177;SDS011;6152;48.728;9.256;2023-02-13T05:08:32;34.97;;;15.83;;
12177;SDS011;6152;48.728;9.256;2023-02-13T05:10:59;29.90;;;14.60;;
12177;SDS011;6152;48.728;9.256;2023-02-13T05:13:25;26.80;;;14.63;;
12177;SDS011;6152;48.728;9.256;2023-02-13T05:15:51;32.47;;;15.13;;
12177;SDS011;6152;48.728;9.256;2023-02-13T05:18:17;28.47;;;14.50;;
12177;SDS011;6152;48.728;9.256;2023-02-13T05:20:44;28.90;;;14.63;;
12177;SDS011;6152;48.728;9.256;2023-02-13T05:23:30;31.70;;;15.40;;
12177;SDS011;6152;48.728;9.256;2023-02-13T05:25:56;31.00;;;14.97;;
12177;SDS011;6152;48.728;9.256;2023-02-13T05:28:23;28.73;;;14.87;;
12177;SDS011;6152;48.728;9.256;2023-02-13T05:31:08;31.23;;;15.00;;
12177;SDS011;6152;48.728;9.256;2023-02-13T05:33:34;33.37;;;14.63;;
12177;SDS011;6152;48.728;9.256;2023-02-13T05:36:00;32.17;;;15.50;;
12177;SDS011;6152;48.728;9.256;2023-02-13T05:38:26;35.83;;;15.07;;
12177;SDS011;6152;48.728;9.256;2023-02-13T05:40:52;31.20;;;15.07;;
12177;SDS011;6152;48.728;9.256;2023-02-13T05:43:18;34.87;;;15.27;;
12177;SDS011;6152;48.728;9.256;2023-02-13T05:45:45;31.37;;;15.13;;
12177;SDS011;6152;48.728;9.256;2023-02-13T05:48:12;33.77;;;15.10;;
12177;SDS011;6152;48.728;9.256;2023-02-13T05:50:38;33.23;;;15.00;;
12177;SDS011;6152;48.728;9.256;2023-02-13T05:53:04;27.00;;;14.87;;
12177;SDS011;6152;48.728;9.256;2023-02-13T05:55:30;31.30;;;15.53;;
12177;SDS011;6152;48.728;9.256;2023-02-13T05:57:56;31.07;;;15.37;;
12177;SDS011;6152;48.728;9.256;2023-02-13T06:00:23;32.03;;;15.67;;
12177;SDS011;6152;48.728;9.256;2023-02-13T06:02:49;33.07;;;14.60;;
12177;SDS011;6152;48.728;9.256;2023-02-13T06:05:15;27.37;;;14.43;;
12177;SDS011;6152;48.728;9.256;2023-02-13T06:07:41;32.53;;;15.23;;
12177;SDS011;6152;48.728;9.256;2023-02-13T06:10:08;32.47;;;15.73;;
12177;SDS011;6152;48.728;9.256;2023-02-13T06:12:34;28.27;;;14.00;;
12177;SDS011;6152;48.728;9.256;2023-02-13T06:15:00;29.33;;;13.87;;
12177;SDS011;6152;48.728;9.256;2023-02-13T06:17:26;30.30;;;14.27;;
12177;SDS011;6152;48.728;9.256;2023-02-13T06:19:52;29.30;;;14.60;;
12177;SDS011;6152;48.728;9.256;2023-02-13T06:22:18;27.47;;;15.97;;
12177;SDS011;6152;48.728;9.256;2023-02-13T06:24:44;26.97;;;14.50;;
12177;SDS011;6152;48.728;9.256;2023-02-13T06:27:10;26.83;;;14.07;;
12177;SDS011;6152;48.728;9.256;2023-02-13T06:29:37;30.73;;;14.43;;
12177;SDS011;6152;48.728;9.256;2023-02-13T06:32:03;33.07;;;15.13;;
12177;SDS011;6152;48.728;9.256;2023-02-13T06:34:29;27.17;;;13.53;;
12177;SDS011;6152;48.728;9.256;2023-02-13T06:36:55;32.23;;;16.03;;
12177;SDS011;6152;48.728;9.256;2023-02-13T06:39:21;31.23;;;15.10;;
12177;SDS011;6152;48.728;9.256;2023-02-13T06:41:47;29.57;;;14.97;;
12177;SDS011;6152;48.728;9.256;2023-02-13T06:44:13;37.53;;;16.37;;
12177;SDS011;6152;48.728;9.256;2023-02-13T06:46:39;32.23;;;16.27;;
12177;SDS011;6152;48.728;9.256;2023-02-13T06:49:05;30.70;;;15.80;;
12177;SDS011;6152;48.728;9.256;2023-02-13T06:51:34;29.87;;;14.80;;
12177;SDS011;6152;48.728;9.256;2023-02-13T06:54:00;31.37;;;16.60;;
12177;SDS011;6152;48.728;9.256;2023-02-13T06:56:26;30.90;;;15.47;;
12177;SDS011;6152;48.728;9.256;2023-02-13T06:58:52;30.17;;;15.57;;
12177;SDS011;6152;48.728;9.256;2023-02-13T07:01:18;31.73;;;16.40;;
12177;SDS011;6152;48.728;9.256;2023-02-13T07:03:45;31.77;;;15.43;;
12177;SDS011;6152;48.728;9.256;2023-02-13T07:06:17;29.90;;;15.17;;
12177;SDS011;6152;48.728;9.256;2023-02-13T07:08:43;26.40;;;14.97;;
12177;SDS011;6152;48.728;9.256;2023-02-13T07:11:19;32.83;;;15.20;;
12177;SDS011;6152;48.728;9.256;2023-02-13T07:13:47;30.70;;;15.53;;
12177;SDS011;6152;48.728;9.256;2023-02-13T07:16:14;32.57;;;15.13;;
12177;SDS011;6152;48.728;9.256;2023-02-13T07:18:40;29.03;;;15.50;;
12177;SDS011;6152;48.728;9.256;2023-02-13T07:21:06;30.63;;;14.90;;
12177;SDS011;6152;48.728;9.256;2023-02-13T07:23:32;35.10;;;15.63;;
12177;SDS011;6152;48.728;9.256;2023-02-13T07:25:59;35.30;;;16.43;;
12177;SDS011;6152;48.728;9.256;2023-02-13T07:28:26;27.77;;;15.57;;
12177;SDS011;6152;48.728;9.256;2023-02-13T07:30:53;33.60;;;15.90;;
12177;SDS011;6152;48.728;9.256;2023-02-13T07:33:20;35.73;;;18.03;;
12177;SDS011;6152;48.728;9.256;2023-02-13T07:35:47;37.63;;;15.87;;
12177;SDS011;6152;48.728;9.256;2023-02-13T07:38:14;34.37;;;17.40;;
12177;SDS011;6152;48.728;9.256;2023-02-13T07:40:41;37.30;;;16.67;;
12177;SDS011;6152;48.728;9.256;2023-02-13T07:43:07;32.23;;;16.00;;
12177;SDS011;6152;48.728;9.256;2023-02-13T07:45:33;31.50;;;16.73;;
12177;SDS011;6152;48.728;9.256;2023-02-13T07:47:59;34.00;;;17.47;;
12177;SDS011;6152;48.728;9.256;2023-02-13T07:50:25;37.93;;;18.17;;
12177;SDS011;6152;48.728;9.256;2023-02-13T07:52:55;37.73;;;18.27;;
12177;SDS011;6152;48.728;9.256;2023-02-13T07:55:24;35.47;;;18.57;;
12177;SDS011;6152;48.728;9.256;2023-02-13T07:57:51;36.83;;;18.90;;
12177;SDS011;6152;48.728;9.256;2023-02-13T08:00:17;37.73;;;18.57;;
12177;SDS011;6152;48.728;9.256;2023-02-13T08:02:44;40.90;;;18.83;;
12177;SDS011;6152;48.728;9.256;2023-02-13T08:05:11;36.43;;;18.40;;
12177;SDS011;6152;48.728;9.256;2023-02-13T08:07:37;32.67;;;18.00;;
12177;SDS011;6152;48.728;9.256;2023-02-13T08:10:05;36.70;;;19.60;;
12177;SDS011;6152;48.728;9.256;2023-02-13T08:12:51;36.67;;;18.33;;
12177;SDS011;6152;48.728;9.256;2023-02-13T08:15:18;35.87;;;18.63;;
12177;SDS011;6152;48.728;9.256;2023-02-13T08:17:44;36.50;;;18.48;;
12177;SDS011;6152;48.728;9.256;2023-02-13T08:20:10;38.13;;;18.23;;
12177;SDS011;6152;48.728;9.256;2023-02-13T08:22:37;32.23;;;17.77;;
12177;SDS011;6152;48.728;9.256;2023-02-13T08:25:04;29.67;;;17.10;;
12177;SDS011;6152;48.728;9.256;2023-02-13T08:27:30;34.50;;;16.87;;
12177;SDS011;6152;48.728;9.256;2023-02-13T08:29:56;29.03;;;15.50;;
12177;SDS011;6152;48.728;9.256;2023-02-13T08:32:24;24.48;;;14.73;;
12177;SDS011;6152;48.728;9.256;2023-02-13T08:34:50;30.23;;;15.20;;
12177;SDS011;6152;48.728;9.256;2023-02-13T08:37:17;26.65;;;14.40;;
12177;SDS011;6152;48.728;9.256;2023-02-13T08:39:43;27.00;;;14.73;;
12177;SDS011;6152;48.728;9.256;2023-02-13T08:42:09;24.83;;;14.40;;
12177;SDS011;6152;48.728;9.256;2023-02-13T08:44:35;26.80;;;14.73;;
12177;SDS011;6152;48.728;9.256;2023-02-13T08:47:04;22.00;;;12.93;;
12177;SDS011;6152;48.728;9.256;2023-02-13T08:49:31;24.35;;;14.23;;
12177;SDS011;6152;48.728;9.256;2023-02-13T08:51:58;25.73;;;14.25;;
12177;SDS011;6152;48.728;9.256;2023-02-13T08:54:25;24.05;;;13.20;;
12177;SDS011;6152;48.728;9.256;2023-02-13T08:56:52;20.60;;;13.10;;
12177;SDS011;6152;48.728;9.256;2023-02-13T08:59:18;20.85;;;11.77;;
12177;SDS011;6152;48.728;9.256;2023-02-13T09:01:45;20.27;;;12.32;;
12177;SDS011;6152;48.728;9.256;2023-02-13T09:04:12;19.83;;;11.55;;
12177;SDS011;6152;48.728;9.256;2023-02-13T09:06:44;17.05;;;10.95;;
12177;SDS011;6152;48.728;9.256;2023-02-13T09:09:11;19.50;;;11.65;;
12177;SDS011;6152;48.728;9.256;2023-02-13T09:11:37;16.40;;;11.02;;
12177;SDS011;6152;48.728;9.256;2023-02-13T09:14:03;18.05;;;10.43;;
12177;SDS011;6152;48.728;9.256;2023-02-13T09:16:29;17.42;;;10.63;;
12177;SDS011;6152;48.728;9.256;2023-02-13T09:18:55;17.65;;;10.07;;
12177;SDS011;6152;48.728;9.256;2023-02-13T09:21:21;15.80;;;9.75;;
12177;SDS011;6152;48.728;9.256;2023-02-13T09:23:48;15.68;;;10.02;;
12177;SDS011;6152;48.728;9.256;2023-02-13T09:26:19;15.45;;;9.55;;
12177;SDS011;6152;48.728;9.256;2023-02-13T09:28:45;15.15;;;9.38;;
12177;SDS011;6152;48.728;9.256;2023-02-13T09:31:12;13.45;;;8.85;;
12177;SDS011;6152;48.728;9.256;2023-02-13T09:33:40;13.07;;;8.50;;
12177;SDS011;6152;48.728;9.256;2023-02-13T09:36:12;11.00;;;7.25;;
12177;SDS011;6152;48.728;9.256;2023-02-13T09:38:40;11.73;;;7.53;;
12177;SDS011;6152;48.728;9.256;2023-02-13T09:41:14;10.07;;;7.03;;
12177;SDS011;6152;48.728;9.256;2023-02-13T09:43:48;11.35;;;6.82;;
12177;SDS011;6152;48.728;9.256;2023-02-13T09:46:38;11.00;;;6.78;;
12177;SDS011;6152;48.728;9.256;2023-02-13T09:49:14;8.98;;;6.60;;
12177;SDS011;6152;48.728;9.256;2023-02-13T09:51:44;9.10;;;6.10;;
12177;SDS011;6152;48.728;9.256;2023-02-13T09:54:18;7.80;;;5.68;;
12177;SDS011;6152;48.728;9.256;2023-02-13T09:56:54;8.48;;;6.15;;
12177;SDS011;6152;48.728;9.256;2023-02-13T10:05:02;6.68;;;5.97;;
12177;SDS011;6152;48.728;9.256;2023-02-13T10:07:52;6.28;;;5.55;;
12177;SDS011;6152;48.728;9.256;2023-02-13T10:18:27;6.40;;;5.80;;
12177;SDS011;6152;48.728;9.256;2023-02-13T10:21:14;6.97;;;6.15;;
12177;SDS011;6152;48.728;9.256;2023-02-13T10:23:57;9.95;;;6.13;;
12177;SDS011;6152;48.728;9.256;2023-02-13T10:26:31;7.20;;;6.50;;
12177;SDS011;6152;48.728;9.256;2023-02-13T10:29:20;6.90;;;6.00;;
12177;SDS011;6152;48.728;9.256;2023-02-13T10:32:09;6.43;;;5.82;;
12177;SDS011;6152;48.728;9.256;2023-02-13T10:34:41;6.75;;;5.75;;
12177;SDS011;6152;48.728;9.256;2023-02-13T10:37:14;6.03;;;5.43;;
12177;SDS011;6152;48.728;9.256;2023-02-13T10:39:46;6.45;;;5.85;;
12177;SDS011;6152;48.728;9.256;2023-02-13T10:56:13;5.93;;;5.43;;
12177;SDS011;6152;48.728;9.256;2023-02-13T11:02:08;6.40;;;5.80;;
12177;SDS011;6152;48.728;9.256;2023-02-13T11:04:16;6.35;;;5.60;;
12177;SDS011;6152;48.728;9.256;2023-02-13T11:06:58;7.18;;;5.68;;
12177;SDS011;6152;48.728;9.256;2023-02-13T11:09:26;6.05;;;5.47;;
12177;SDS011;6152;48.728;9.256;2023-02-13T11:11:54;6.70;;;5.90;;
12177;SDS011;6152;48.728;9.256;2023-02-13T11:14:26;8.93;;;6.30;;
12177;SDS011;6152;48.728;9.256;2023-02-13T11:17:03;7.13;;;6.43;;
12177;SDS011;6152;48.728;9.256;2023-02-13T11:19:37;7.25;;;6.50;;
12177;SDS011;6152;48.728;9.256;2023-02-13T11:22:24;7.10;;;6.40;;
12177;SDS011;6152;48.728;9.256;2023-02-13T11:24:52;6.78;;;6.10;;
12177;SDS011;6152;48.728;9.256;2023-02-13T11:27:27;6.85;;;6.13;;
12177;SDS011;6152;48.728;9.256;2023-02-13T11:29:58;7.60;;;6.90;;
12177;SDS011;6152;48.728;9.256;2023-02-13T11:32:55;7.80;;;6.93;;
12177;SDS011;6152;48.728;9.256;2023-02-13T11:35:28;7.32;;;6.72;;
12177;SDS011;6152;48.728;9.256;2023-02-13T11:40:40;7.38;;;6.68;;
12177;SDS011;6152;48.728;9.256;2023-02-13T11:44:02;8.38;;;7.57;;
12177;SDS011;6152;48.728;9.256;2023-02-13T11:46:24;9.15;;;7.40;;
12177;SDS011;6152;48.728;9.256;2023-02-13T11:51:40;7.80;;;7.00;;
12177;SDS011;6152;48.728;9.256;2023-02-13T11:54:20;8.55;;;7.65;;
12177;SDS011;6152;48.728;9.256;2023-02-13T11:57:39;9.15;;;8.23;;
12177;SDS011;6152;48.728;9.256;2023-02-13T11:59:48;10.25;;;9.15;;
12177;SDS011;6152;48.728;9.256;2023-02-13T12:02:18;9.30;;;8.40;;
12177;SDS011;6152;48.728;9.256;2023-02-13T12:04:50;8.65;;;7.70;;
12177;SDS011;6152;48.728;9.256;2023-02-13T12:07:24;7.93;;;7.20;;
12177;SDS011;6152;48.728;9.256;2023-02-13T12:12:36;7.47;;;6.70;;
12177;SDS011;6152;48.728;9.256;2023-02-13T12:15:21;7.70;;;7.00;;
12177;SDS011;6152;48.728;9.256;2023-02-13T12:17:56;8.02;;;6.95;;
12177;SDS011;6152;48.728;9.256;2023-02-13T12:20:30;8.52;;;7.60;;
12177;SDS011;6152;48.728;9.256;2023-02-13T12:23:28;8.00;;;7.20;;
12177;SDS011;6152;48.728;9.256;2023-02-13T12:29:16;8.32;;;7.43;;
12177;SDS011;6152;48.728;9.256;2023-02-13T12:43:06;8.85;;;7.80;;
12177;SDS011;6152;48.728;9.256;2023-02-13T12:45:55;8.52;;;7.63;;
12177;SDS011;6152;48.728;9.256;2023-02-13T12:48:57;8.57;;;7.68;;
12177;SDS011;6152;48.728;9.256;2023-02-13T12:51:27;7.95;;;7.22;;
12177;SDS011;6152;48.728;9.256;2023-02-13T13:00:27;8.13;;;7.32;;
12177;SDS011;6152;48.728;9.256;2023-02-13T13:06:06;9.65;;;8.13;;
12177;SDS011;6152;48.728;9.256;2023-02-13T13:11:36;10.20;;;7.45;;
12177;SDS011;6152;48.728;9.256;2023-02-13T13:19:50;8.40;;;7.57;;
12177;SDS011;6152;48.728;9.256;2023-02-13T13:22:22;10.25;;;8.10;;
12177;SDS011;6152;48.728;9.256;2023-02-13T13:25:24;9.55;;;8.00;;
12177;SDS011;6152;48.728;9.256;2023-02-13T13:27:59;12.50;;;8.45;;
12177;SDS011;6152;48.728;9.256;2023-02-13T13:30:29;9.05;;;6.90;;
12177;SDS011;6152;48.728;9.256;2023-02-13T13:38:47;13.98;;;8.27;;
12177;SDS011;6152;48.728;9.256;2023-02-13T13:41:31;10.10;;;7.53;;
12177;SDS011;6152;48.728;9.256;2023-02-13T13:47:18;9.07;;;7.05;;
12177;SDS011;6152;48.728;9.256;2023-02-13T13:49:56;8.50;;;6.78;;
12177;SDS011;6152;48.728;9.256;2023-02-13T13:52:25;10.38;;;6.78;;
12177;SDS011;6152;48.728;9.256;2023-02-13T13:54:54;9.45;;;7.10;;
12177;SDS011;6152;48.728;9.256;2023-02-13T13:57:26;8.82;;;6.63;;
12177;SDS011;6152;48.728;9.256;2023-02-13T14:02:44;10.45;;;7.13;;
12177;SDS011;6152;48.728;9.256;2023-02-13T14:13:29;10.38;;;6.72;;
12177;SDS011;6152;48.728;9.256;2023-02-13T14:15:57;10.70;;;7.40;;
12177;SDS011;6152;48.728;9.256;2023-02-13T14:18:24;10.85;;;7.40;;
12177;SDS011;6152;48.728;9.256;2023-02-13T14:20:54;15.43;;;7.47;;
12177;SDS011;6152;48.728;9.256;2023-02-13T14:26:17;10.70;;;6.80;;
12177;SDS011;6152;48.728;9.256;2023-02-13T14:31:35;11.38;;;7.50;;
12177;SDS011;6152;48.728;9.256;2023-02-13T14:36:33;10.57;;;7.78;;
12177;SDS011;6152;48.728;9.256;2023-02-13T14:39:02;10.35;;;6.95;;
12177;SDS011;6152;48.728;9.256;2023-02-13T14:47:22;12.25;;;7.03;;
12177;SDS011;6152;48.728;9.256;2023-02-13T14:49:52;9.68;;;6.75;;
12177;SDS011;6152;48.728;9.256;2023-02-13T14:52:24;10.75;;;7.20;;
12177;SDS011;6152;48.728;9.256;2023-02-13T14:57:48;9.43;;;6.53;;
12177;SDS011;6152;48.728;9.256;2023-02-13T15:00:24;11.43;;;6.75;;
12177;SDS011;6152;48.728;9.256;2023-02-13T15:05:53;9.15;;;6.40;;
12177;SDS011;6152;48.728;9.256;2023-02-13T15:08:25;11.57;;;6.50;;
12177;SDS011;6152;48.728;9.256;2023-02-13T15:10:56;10.00;;;6.63;;
12177;SDS011;6152;48.728;9.256;2023-02-13T15:13:23;15.77;;;7.45;;
12177;SDS011;6152;48.728;9.256;2023-02-13T15:16:02;10.82;;;5.97;;
12177;SDS011;6152;48.728;9.256;2023-02-13T15:18:35;12.55;;;7.10;;
12177;SDS011;6152;48.728;9.256;2023-02-13T15:21:17;8.75;;;6.75;;
12177;SDS011;6152;48.728;9.256;2023-02-13T15:23:49;9.27;;;5.75;;
12177;SDS011;6152;48.728;9.256;2023-02-13T15:26:21;8.80;;;5.72;;
12177;SDS011;6152;48.728;9.256;2023-02-13T15:31:31;8.20;;;5.90;;
12177;SDS011;6152;48.728;9.256;2023-02-13T15:33:58;11.73;;;6.15;;
12177;SDS011;6152;48.728;9.256;2023-02-13T15:36:26;7.53;;;5.78;;
12177;SDS011;6152;48.728;9.256;2023-02-13T15:39:03;9.90;;;6.15;;
12177;SDS011;6152;48.728;9.256;2023-02-13T15:41:33;9.23;;;6.00;;
12177;SDS011;6152;48.728;9.256;2023-02-13T15:44:06;9.40;;;6.15;;
12177;SDS011;6152;48.728;9.256;2023-02-13T15:46:39;11.00;;;6.47;;
12177;SDS011;6152;48.728;9.256;2023-02-13T15:49:13;9.38;;;5.97;;
12177;SDS011;6152;48.728;9.256;2023-02-13T15:51:42;9.73;;;6.70;;
12177;SDS011;6152;48.728;9.256;2023-02-13T15:54:25;9.13;;;6.78;;
12177;SDS011;6152;48.728;9.256;2023-02-13T15:56:53;13.60;;;8.23;;
12177;SDS011;6152;48.728;9.256;2023-02-13T15:59:28;13.30;;;7.15;;
12177;SDS011;6152;48.728;9.256;2023-02-13T16:01:59;10.20;;;6.70;;
12177;SDS011;6152;48.728;9.256;2023-02-13T16:04:27;13.45;;;6.22;;
12177;SDS011;6152;48.728;9.256;2023-02-13T16:06:54;8.65;;;6.30;;
12177;SDS011;6152;48.728;9.256;2023-02-13T16:09:31;12.15;;;7.00;;
12177;SDS011;6152;48.728;9.256;2023-02-13T16:11:59;11.02;;;6.75;;
12177;SDS011;6152;48.728;9.256;2023-02-13T16:14:32;13.45;;;7.10;;
12177;SDS011;6152;48.728;9.256;2023-02-13T16:19:36;13.10;;;7.00;;
12177;SDS011;6152;48.728;9.256;2023-02-13T16:22:33;12.60;;;6.63;;
12177;SDS011;6152;48.728;9.256;2023-02-13T16:27:53;12.55;;;6.90;;
12177;SDS011;6152;48.728;9.256;2023-02-13T16:30:40;10.23;;;6.57;;
12177;SDS011;6152;48.728;9.256;2023-02-13T16:41:03;11.90;;;7.10;;
12177;SDS011;6152;48.728;9.256;2023-02-13T16:54:13;12.10;;;6.63;;
12177;SDS011;6152;48.728;9.256;2023-02-13T16:56:47;13.70;;;6.90;;
12177;SDS011;6152;48.728;9.256;2023-02-13T16:59:27;14.38;;;7.70;;
12177;SDS011;6152;48.728;9.256;2023-02-13T17:02:11;13.23;;;7.45;;
12177;SDS011;6152;48.728;9.256;2023-02-13T17:04:41;13.73;;;7.35;;
12177;SDS011;6152;48.728;9.256;2023-02-13T17:07:25;13.23;;;7.55;;
12177;SDS011;6152;48.728;9.256;2023-02-13T17:10:17;11.45;;;7.10;;
12177;SDS011;6152;48.728;9.256;2023-02-13T17:12:46;15.02;;;7.57;;
12177;SDS011;6152;48.728;9.256;2023-02-13T17:15:22;13.27;;;7.43;;
12177;SDS011;6152;48.728;9.256;2023-02-13T17:17:59;12.55;;;7.03;;
12177;SDS011;6152;48.728;9.256;2023-02-13T17:20:26;13.48;;;8.27;;
12177;SDS011;6152;48.728;9.256;2023-02-13T17:22:56;14.00;;;8.60;;
12177;SDS011;6152;48.728;9.256;2023-02-13T17:27:53;16.48;;;8.98;;
12177;SDS011;6152;48.728;9.256;2023-02-13T17:30:22;17.80;;;9.45;;
12177;SDS011;6152;48.728;9.256;2023-02-13T17:32:53;14.48;;;7.53;;
12177;SDS011;6152;48.728;9.256;2023-02-13T17:35:26;15.73;;;9.35;;
12177;SDS011;6152;48.728;9.256;2023-02-13T17:37:53;14.52;;;8.23;;
12177;SDS011;6152;48.728;9.256;2023-02-13T17:40:20;12.52;;;7.70;;
12177;SDS011;6152;48.728;9.256;2023-02-13T17:42:52;14.52;;;8.40;;
12177;SDS011;6152;48.728;9.256;2023-02-13T17:45:20;15.80;;;8.13;;
12177;SDS011;6152;48.728;9.256;2023-02-13T17:47:48;15.05;;;8.50;;
12177;SDS011;6152;48.728;9.256;2023-02-13T17:50:15;11.82;;;7.47;;
12177;SDS011;6152;48.728;9.256;2023-02-13T17:52:41;14.00;;;8.05;;
12177;SDS011;6152;48.728;9.256;2023-02-13T17:55:13;13.25;;;8.15;;
12177;SDS011;6152;48.728;9.256;2023-02-13T17:57:50;15.75;;;9.13;;
12177;SDS011;6152;48.728;9.256;2023-02-13T18:00:18;15.70;;;8.57;;
12177;SDS011;6152;48.728;9.256;2023-02-13T18:02:46;16.43;;;9.13;;
12177;SDS011;6152;48.728;9.256;2023-02-13T18:05:14;18.15;;;8.77;;
12177;SDS011;6152;48.728;9.256;2023-02-13T18:07:41;16.27;;;9.38;;
12177;SDS011;6152;48.728;9.256;2023-02-13T18:10:15;18.30;;;9.23;;
12177;SDS011;6152;48.728;9.256;2023-02-13T18:12:46;17.10;;;9.48;;
12177;SDS011;6152;48.728;9.256;2023-02-13T18:15:13;16.90;;;9.77;;